sensor_id;sensor_type;location;lat;lon;timestamp;temperature;humidity
4209;DHT22;36320;48.860;2.380;2023-07-13T00:02:03;23.00;46.50
4209;DHT22;36320;48.860;2.380;2023-07-13T00:04:28;23.00;46.70
4209;DHT22;36320;48.860;2.380;2023-07-13T00:06:54;23.00;46.70
4209;DHT22;36320;48.860;2.380;2023-07-13T00:09:22;23.00;46.90
4209;DHT22;36320;48.860;2.380;2023-07-13T00:11:51;22.90;46.90
4209;DHT22;36320;48.860;2.380;2023-07-13T00:14:17;22.90;46.90
4209;DHT22;36320;48.860;2.380;2023-07-13T00:16:43;23.10;46.90
4209;DHT22;36320;48.860;2.380;2023-07-13T00:19:10;23.10;46.80
4209;DHT22;36320;48.860;2.380;2023-07-13T00:21:37;23.00;46.90
4209;DHT22;36320;48.860;2.380;2023-07-13T00:24:03;22.80;47.10
4209;DHT22;36320;48.860;2.380;2023-07-13T00:26:29;22.90;47.20
4209;DHT22;36320;48.860;2.380;2023-07-13T00:28:58;23.00;47.00
4209;DHT22;36320;48.860;2.380;2023-07-13T00:31:24;23.10;47.30
4209;DHT22;36320;48.860;2.380;2023-07-13T00:33:51;22.90;47.20
4209;DHT22;36320;48.860;2.380;2023-07-13T00:36:16;23.00;47.30
4209;DHT22;36320;48.860;2.380;2023-07-13T00:38:43;23.00;47.20
4209;DHT22;36320;48.860;2.380;2023-07-13T00:41:09;23.10;47.30
4209;DHT22;36320;48.860;2.380;2023-07-13T00:43:35;23.10;47.30
4209;DHT22;36320;48.860;2.380;2023-07-13T00:48:34;22.90;47.60
4209;DHT22;36320;48.860;2.380;2023-07-13T00:51:01;22.90;47.80
4209;DHT22;36320;48.860;2.380;2023-07-13T00:53:29;22.90;47.90
4209;DHT22;36320;48.860;2.380;2023-07-13T00:55:57;22.90;48.10
4209;DHT22;36320;48.860;2.380;2023-07-13T00:58:25;22.90;48.30
4209;DHT22;36320;48.860;2.380;2023-07-13T01:00:51;22.90;48.30
4209;DHT22;36320;48.860;2.380;2023-07-13T01:03:19;22.80;48.50
4209;DHT22;36320;48.860;2.380;2023-07-13T01:05:47;23.00;48.40
4209;DHT22;36320;48.860;2.380;2023-07-13T01:08:13;23.10;48.40
4209;DHT22;36320;48.860;2.380;2023-07-13T01:10:39;23.20;48.30
4209;DHT22;36320;48.860;2.380;2023-07-13T01:13:10;23.10;48.20
4209;DHT22;36320;48.860;2.380;2023-07-13T01:15:45;23.10;48.40
4209;DHT22;36320;48.860;2.380;2023-07-13T01:18:17;23.00;48.60
4209;DHT22;36320;48.860;2.380;2023-07-13T01:21:10;23.00;48.70
4209;DHT22;36320;48.860;2.380;2023-07-13T01:23:36;23.00;48.80
4209;DHT22;36320;48.860;2.380;2023-07-13T01:26:02;23.00;48.90
4209;DHT22;36320;48.860;2.380;2023-07-13T01:28:28;23.00;48.80
4209;DHT22;36320;48.860;2.380;2023-07-13T01:30:56;22.90;48.90
4209;DHT22;36320;48.860;2.380;2023-07-13T01:33:24;23.00;49.00
4209;DHT22;36320;48.860;2.380;2023-07-13T01:35:50;23.00;48.90
4209;DHT22;36320;48.860;2.380;2023-07-13T01:38:20;22.80;49.10
4209;DHT22;36320;48.860;2.380;2023-07-13T01:40:46;22.70;49.20
4209;DHT22;36320;48.860;2.380;2023-07-13T01:43:12;22.80;49.30
4209;DHT22;36320;48.860;2.380;2023-07-13T01:45:38;22.80;49.20
4209;DHT22;36320;48.860;2.380;2023-07-13T01:48:04;22.80;49.30
4209;DHT22;36320;48.860;2.380;2023-07-13T01:50:32;22.80;49.20
4209;DHT22;36320;48.860;2.380;2023-07-13T01:53:00;23.10;49.30
4209;DHT22;36320;48.860;2.380;2023-07-13T01:55:25;23.10;49.10
4209;DHT22;36320;48.860;2.380;2023-07-13T01:57:51;23.00;49.00
4209;DHT22;36320;48.860;2.380;2023-07-13T02:00:17;22.80;49.80
4209;DHT22;36320;48.860;2.380;2023-07-13T02:02:43;22.80;49.20
4209;DHT22;36320;48.860;2.380;2023-07-13T02:05:10;22.80;49.10
4209;DHT22;36320;48.860;2.380;2023-07-13T02:07:37;22.70;48.90
4209;DHT22;36320;48.860;2.380;2023-07-13T02:10:03;22.80;48.80
4209;DHT22;36320;48.860;2.380;2023-07-13T02:12:29;22.80;48.60
4209;DHT22;36320;48.860;2.380;2023-07-13T02:14:55;22.90;48.20
4209;DHT22;36320;48.860;2.380;2023-07-13T02:17:20;23.00;47.90
4209;DHT22;36320;48.860;2.380;2023-07-13T02:19:46;22.90;47.70
4209;DHT22;36320;48.860;2.380;2023-07-13T02:22:12;23.00;47.30
4209;DHT22;36320;48.860;2.380;2023-07-13T02:24:38;22.90;47.10
4209;DHT22;36320;48.860;2.380;2023-07-13T02:27:04;23.10;47.10
4209;DHT22;36320;48.860;2.380;2023-07-13T02:29:30;22.70;46.80
4209;DHT22;36320;48.860;2.380;2023-07-13T02:31:55;23.00;47.20
4209;DHT22;36320;48.860;2.380;2023-07-13T02:34:21;22.90;47.30
4209;DHT22;36320;48.860;2.380;2023-07-13T02:36:47;22.90;47.50
4209;DHT22;36320;48.860;2.380;2023-07-13T02:39:13;22.90;47.40
4209;DHT22;36320;48.860;2.380;2023-07-13T02:41:39;22.80;47.40
4209;DHT22;36320;48.860;2.380;2023-07-13T02:44:05;23.00;47.50
4209;DHT22;36320;48.860;2.380;2023-07-13T02:46:35;22.90;47.30
4209;DHT22;36320;48.860;2.380;2023-07-13T02:49:02;23.00;47.50
4209;DHT22;36320;48.860;2.380;2023-07-13T02:51:28;23.00;47.30
4209;DHT22;36320;48.860;2.380;2023-07-13T02:53:54;23.10;47.30
4209;DHT22;36320;48.860;2.380;2023-07-13T02:56:23;23.10;47.20
4209;DHT22;36320;48.860;2.380;2023-07-13T02:58:51;23.10;47.10
4209;DHT22;36320;48.860;2.380;2023-07-13T03:01:17;23.10;47.10
4209;DHT22;36320;48.860;2.380;2023-07-13T03:03:45;23.00;47.10
4209;DHT22;36320;48.860;2.380;2023-07-13T03:06:12;22.80;47.40
4209;DHT22;36320;48.860;2.380;2023-07-13T03:08:38;22.90;47.50
4209;DHT22;36320;48.860;2.380;2023-07-13T03:11:09;23.00;47.40
4209;DHT22;36320;48.860;2.380;2023-07-13T03:13:36;22.90;47.50
4209;DHT22;36320;48.860;2.380;2023-07-13T03:16:02;22.80;47.50
4209;DHT22;36320;48.860;2.380;2023-07-13T03:18:28;22.80;47.50
4209;DHT22;36320;48.860;2.380;2023-07-13T03:20:54;22.70;47.50
4209;DHT22;36320;48.860;2.380;2023-07-13T03:23:21;22.80;47.60
4209;DHT22;36320;48.860;2.380;2023-07-13T03:25:47;22.80;47.70
4209;DHT22;36320;48.860;2.380;2023-07-13T03:28:14;22.70;47.70
4209;DHT22;36320;48.860;2.380;2023-07-13T03:30:40;22.80;47.80
4209;DHT22;36320;48.860;2.380;2023-07-13T03:33:06;22.80;47.60
4209;DHT22;36320;48.860;2.380;2023-07-13T03:35:32;22.70;47.60
4209;DHT22;36320;48.860;2.380;2023-07-13T03:37:59;22.80;47.70
4209;DHT22;36320;48.860;2.380;2023-07-13T03:40:26;22.80;47.70
4209;DHT22;36320;48.860;2.380;2023-07-13T03:42:53;22.70;47.90
4209;DHT22;36320;48.860;2.380;2023-07-13T03:45:19;22.50;48.10
4209;DHT22;36320;48.860;2.380;2023-07-13T03:47:45;22.40;48.30
4209;DHT22;36320;48.860;2.380;2023-07-13T03:50:11;22.40;48.50
4209;DHT22;36320;48.860;2.380;2023-07-13T03:52:36;22.40;48.70
4209;DHT22;36320;48.860;2.380;2023-07-13T03:55:03;22.40;48.60
4209;DHT22;36320;48.860;2.380;2023-07-13T03:57:29;22.50;48.60
4209;DHT22;36320;48.860;2.380;2023-07-13T03:59:55;22.40;48.80
4209;DHT22;36320;48.860;2.380;2023-07-13T04:02:20;22.40;49.00
4209;DHT22;36320;48.860;2.380;2023-07-13T04:04:47;22.40;49.10
4209;DHT22;36320;48.860;2.380;2023-07-13T04:07:12;22.40;49.30
4209;DHT22;36320;48.860;2.380;2023-07-13T04:09:38;22.40;49.40
4209;DHT22;36320;48.860;2.380;2023-07-13T04:12:04;22.30;49.60
4209;DHT22;36320;48.860;2.380;2023-07-13T04:14:30;22.40;49.80
4209;DHT22;36320;48.860;2.380;2023-07-13T04:16:56;22.40;49.80
4209;DHT22;36320;48.860;2.380;2023-07-13T04:19:23;22.30;50.10
4209;DHT22;36320;48.860;2.380;2023-07-13T04:21:49;22.50;50.20
4209;DHT22;36320;48.860;2.380;2023-07-13T04:24:16;22.60;50.10
4209;DHT22;36320;48.860;2.380;2023-07-13T04:26:42;22.70;50.40
4209;DHT22;36320;48.860;2.380;2023-07-13T04:29:08;22.70;50.80
4209;DHT22;36320;48.860;2.380;2023-07-13T04:31:33;22.80;50.10
4209;DHT22;36320;48.860;2.380;2023-07-13T04:33:59;22.80;50.00
4209;DHT22;36320;48.860;2.380;2023-07-13T04:36:25;22.70;50.20
4209;DHT22;36320;48.860;2.380;2023-07-13T04:38:54;22.60;50.30
4209;DHT22;36320;48.860;2.380;2023-07-13T04:41:21;22.50;50.40
4209;DHT22;36320;48.860;2.380;2023-07-13T04:43:47;22.50;50.60
4209;DHT22;36320;48.860;2.380;2023-07-13T04:46:16;22.60;50.80
4209;DHT22;36320;48.860;2.380;2023-07-13T04:48:43;22.70;50.80
4209;DHT22;36320;48.860;2.380;2023-07-13T04:51:09;22.60;50.70
4209;DHT22;36320;48.860;2.380;2023-07-13T04:53:35;22.60;50.80
4209;DHT22;36320;48.860;2.380;2023-07-13T04:56:02;22.70;51.00
4209;DHT22;36320;48.860;2.380;2023-07-13T04:58:30;22.70;50.90
4209;DHT22;36320;48.860;2.380;2023-07-13T05:01:07;22.80;50.90
4209;DHT22;36320;48.860;2.380;2023-07-13T05:03:34;22.70;51.00
4209;DHT22;36320;48.860;2.380;2023-07-13T05:06:02;22.90;51.10
4209;DHT22;36320;48.860;2.380;2023-07-13T05:08:28;23.00;50.90
4209;DHT22;36320;48.860;2.380;2023-07-13T05:10:54;22.80;50.90
4209;DHT22;36320;48.860;2.380;2023-07-13T05:13:20;22.80;51.10
4209;DHT22;36320;48.860;2.380;2023-07-13T05:15:55;22.80;51.20
4209;DHT22;36320;48.860;2.380;2023-07-13T05:18:21;22.80;51.30
4209;DHT22;36320;48.860;2.380;2023-07-13T05:20:47;22.90;51.30
4209;DHT22;36320;48.860;2.380;2023-07-13T05:23:12;23.00;51.20
4209;DHT22;36320;48.860;2.380;2023-07-13T05:25:39;22.90;51.20
4209;DHT22;36320;48.860;2.380;2023-07-13T05:28:04;23.00;51.60
4209;DHT22;36320;48.860;2.380;2023-07-13T05:30:30;22.80;51.40
4209;DHT22;36320;48.860;2.380;2023-07-13T05:32:56;22.80;51.60
4209;DHT22;36320;48.860;2.380;2023-07-13T05:35:21;22.90;51.70
4209;DHT22;36320;48.860;2.380;2023-07-13T05:37:48;22.80;51.60
4209;DHT22;36320;48.860;2.380;2023-07-13T05:40:14;22.80;51.70
4209;DHT22;36320;48.860;2.380;2023-07-13T05:42:40;22.80;51.80
4209;DHT22;36320;48.860;2.380;2023-07-13T05:45:07;22.70;52.00
4209;DHT22;36320;48.860;2.380;2023-07-13T05:47:32;22.60;52.00
4209;DHT22;36320;48.860;2.380;2023-07-13T05:49:58;22.50;52.10
4209;DHT22;36320;48.860;2.380;2023-07-13T05:52:24;22.50;52.10
4209;DHT22;36320;48.860;2.380;2023-07-13T05:54:50;22.70;52.20
4209;DHT22;36320;48.860;2.380;2023-07-13T05:57:15;22.80;52.00
4209;DHT22;36320;48.860;2.380;2023-07-13T05:59:41;22.90;51.70
4209;DHT22;36320;48.860;2.380;2023-07-13T06:02:09;23.10;51.60
4209;DHT22;36320;48.860;2.380;2023-07-13T06:04:36;23.50;51.40
4209;DHT22;36320;48.860;2.380;2023-07-13T06:07:02;23.30;51.20
4209;DHT22;36320;48.860;2.380;2023-07-13T06:09:27;23.20;51.10
4209;DHT22;36320;48.860;2.380;2023-07-13T06:11:53;23.10;51.10
4209;DHT22;36320;48.860;2.380;2023-07-13T06:14:19;23.00;51.20
4209;DHT22;36320;48.860;2.380;2023-07-13T06:16:44;23.10;51.10
4209;DHT22;36320;48.860;2.380;2023-07-13T06:19:10;23.20;50.80
4209;DHT22;36320;48.860;2.380;2023-07-13T06:21:37;23.30;50.60
4209;DHT22;36320;48.860;2.380;2023-07-13T06:24:03;23.50;50.40
4209;DHT22;36320;48.860;2.380;2023-07-13T06:26:29;23.40;50.30
4209;DHT22;36320;48.860;2.380;2023-07-13T06:28:59;23.40;50.40
4209;DHT22;36320;48.860;2.380;2023-07-13T06:31:25;23.60;50.50
4209;DHT22;36320;48.860;2.380;2023-07-13T06:33:50;23.80;50.20
4209;DHT22;36320;48.860;2.380;2023-07-13T06:36:16;23.80;50.10
4209;DHT22;36320;48.860;2.380;2023-07-13T06:38:42;23.90;50.20
4209;DHT22;36320;48.860;2.380;2023-07-13T06:41:08;24.10;50.10
4209;DHT22;36320;48.860;2.380;2023-07-13T06:43:34;24.20;50.00
4209;DHT22;36320;48.860;2.380;2023-07-13T06:46:01;24.10;49.90
4209;DHT22;36320;48.860;2.380;2023-07-13T06:48:27;23.80;50.10
4209;DHT22;36320;48.860;2.380;2023-07-13T06:50:54;23.90;50.40
4209;DHT22;36320;48.860;2.380;2023-07-13T06:53:20;23.70;50.20
4209;DHT22;36320;48.860;2.380;2023-07-13T06:55:47;23.70;50.40
4209;DHT22;36320;48.860;2.380;2023-07-13T06:58:14;23.70;50.50
4209;DHT22;36320;48.860;2.380;2023-07-13T07:00:41;23.70;50.70
4209;DHT22;36320;48.860;2.380;2023-07-13T07:03:09;23.60;50.80
4209;DHT22;36320;48.860;2.380;2023-07-13T07:05:34;23.50;50.70
4209;DHT22;36320;48.860;2.380;2023-07-13T07:08:00;23.50;50.90
4209;DHT22;36320;48.860;2.380;2023-07-13T07:10:28;23.80;50.80
4209;DHT22;36320;48.860;2.380;2023-07-13T07:12:54;23.70;50.90
4209;DHT22;36320;48.860;2.380;2023-07-13T07:15:20;23.70;50.80
4209;DHT22;36320;48.860;2.380;2023-07-13T07:17:46;23.70;51.00
4209;DHT22;36320;48.860;2.380;2023-07-13T07:20:12;23.80;50.90
4209;DHT22;36320;48.860;2.380;2023-07-13T07:22:39;23.70;51.10
4209;DHT22;36320;48.860;2.380;2023-07-13T07:25:05;23.60;51.20
4209;DHT22;36320;48.860;2.380;2023-07-13T07:27:32;23.80;51.40
4209;DHT22;36320;48.860;2.380;2023-07-13T07:29:58;23.80;51.20
4209;DHT22;36320;48.860;2.380;2023-07-13T07:32:24;23.80;51.30
4209;DHT22;36320;48.860;2.380;2023-07-13T07:34:50;23.90;51.40
4209;DHT22;36320;48.860;2.380;2023-07-13T07:37:16;24.10;51.20
4209;DHT22;36320;48.860;2.380;2023-07-13T07:39:43;24.10;51.00
4209;DHT22;36320;48.860;2.380;2023-07-13T07:42:08;24.30;51.00
4209;DHT22;36320;48.860;2.380;2023-07-13T07:44:40;24.20;51.10
4209;DHT22;36320;48.860;2.380;2023-07-13T07:47:07;24.30;50.90
4209;DHT22;36320;48.860;2.380;2023-07-13T07:49:33;24.40;51.00
4209;DHT22;36320;48.860;2.380;2023-07-13T07:51:59;24.40;50.90
4209;DHT22;36320;48.860;2.380;2023-07-13T07:54:25;24.30;51.00
4209;DHT22;36320;48.860;2.380;2023-07-13T07:56:57;24.10;51.50
4209;DHT22;36320;48.860;2.380;2023-07-13T07:59:23;24.40;51.30
4209;DHT22;36320;48.860;2.380;2023-07-13T08:01:49;24.90;50.90
4209;DHT22;36320;48.860;2.380;2023-07-13T08:04:20;24.60;50.80
4209;DHT22;36320;48.860;2.380;2023-07-13T08:06:45;24.40;51.20
4209;DHT22;36320;48.860;2.380;2023-07-13T08:09:12;24.20;51.60
4209;DHT22;36320;48.860;2.380;2023-07-13T08:11:37;24.30;51.70
4209;DHT22;36320;48.860;2.380;2023-07-13T08:14:05;24.30;51.60
4209;DHT22;36320;48.860;2.380;2023-07-13T08:16:31;24.20;51.50
4209;DHT22;36320;48.860;2.380;2023-07-13T08:18:58;24.30;51.70
4209;DHT22;36320;48.860;2.380;2023-07-13T08:21:25;24.60;51.50
4209;DHT22;36320;48.860;2.380;2023-07-13T08:23:51;24.90;51.30
4209;DHT22;36320;48.860;2.380;2023-07-13T08:26:17;25.00;50.70
4209;DHT22;36320;48.860;2.380;2023-07-13T08:28:43;25.00;50.90
4209;DHT22;36320;48.860;2.380;2023-07-13T08:31:09;25.10;50.40
4209;DHT22;36320;48.860;2.380;2023-07-13T08:33:36;25.10;50.40
4209;DHT22;36320;48.860;2.380;2023-07-13T08:36:02;24.90;50.50
4209;DHT22;36320;48.860;2.380;2023-07-13T08:38:28;24.60;50.70
4209;DHT22;36320;48.860;2.380;2023-07-13T08:40:56;24.20;50.90
4209;DHT22;36320;48.860;2.380;2023-07-13T08:43:32;24.10;51.30
4209;DHT22;36320;48.860;2.380;2023-07-13T08:46:12;24.30;51.50
4209;DHT22;36320;48.860;2.380;2023-07-13T08:49:04;24.50;51.10
4209;DHT22;36320;48.860;2.380;2023-07-13T08:51:49;24.90;50.50
4209;DHT22;36320;48.860;2.380;2023-07-13T08:56:54;25.60;50.00
4209;DHT22;36320;48.860;2.380;2023-07-13T08:59:28;25.70;49.70
4209;DHT22;36320;48.860;2.380;2023-07-13T09:02:28;25.90;49.50
4209;DHT22;36320;48.860;2.380;2023-07-13T09:05:27;25.80;49.30
4209;DHT22;36320;48.860;2.380;2023-07-13T09:10:49;25.80;48.80
4209;DHT22;36320;48.860;2.380;2023-07-13T09:13:42;25.70;48.60
4209;DHT22;36320;48.860;2.380;2023-07-13T09:16:09;25.60;48.10
4209;DHT22;36320;48.860;2.380;2023-07-13T09:18:46;25.50;48.10
4209;DHT22;36320;48.860;2.380;2023-07-13T09:21:20;25.30;48.10
4209;DHT22;36320;48.860;2.380;2023-07-13T09:23:48;25.40;47.80
4209;DHT22;36320;48.860;2.380;2023-07-13T09:26:24;25.10;47.70
4209;DHT22;36320;48.860;2.380;2023-07-13T09:28:59;25.50;47.70
4209;DHT22;36320;48.860;2.380;2023-07-13T09:31:34;26.00;46.80
4209;DHT22;36320;48.860;2.380;2023-07-13T09:34:02;26.50;46.20
4209;DHT22;36320;48.860;2.380;2023-07-13T09:36:32;26.70;45.50
4209;DHT22;36320;48.860;2.380;2023-07-13T09:39:05;26.60;44.80
4209;DHT22;36320;48.860;2.380;2023-07-13T09:44:38;25.60;44.40
4209;DHT22;36320;48.860;2.380;2023-07-13T09:47:24;25.40;44.30
4209;DHT22;36320;48.860;2.380;2023-07-13T09:50:00;25.30;44.50
4209;DHT22;36320;48.860;2.380;2023-07-13T09:52:29;25.30;44.90
4209;DHT22;36320;48.860;2.380;2023-07-13T09:55:04;25.10;45.10
4209;DHT22;36320;48.860;2.380;2023-07-13T09:57:30;25.10;45.20
4209;DHT22;36320;48.860;2.380;2023-07-13T09:59:56;24.90;45.40
4209;DHT22;36320;48.860;2.380;2023-07-13T10:07:30;24.90;46.20
4209;DHT22;36320;48.860;2.380;2023-07-13T10:09:59;25.10;46.10
4209;DHT22;36320;48.860;2.380;2023-07-13T10:12:27;25.20;45.80
4209;DHT22;36320;48.860;2.380;2023-07-13T10:14:59;25.50;45.70
4209;DHT22;36320;48.860;2.380;2023-07-13T10:17:35;25.80;45.20
4209;DHT22;36320;48.860;2.380;2023-07-13T10:20:05;25.90;45.00
4209;DHT22;36320;48.860;2.380;2023-07-13T10:22:45;25.90;44.90
4209;DHT22;36320;48.860;2.380;2023-07-13T10:25:21;25.70;44.90
4209;DHT22;36320;48.860;2.380;2023-07-13T10:27:51;25.70;45.00
4209;DHT22;36320;48.860;2.380;2023-07-13T10:30:29;25.60;45.20
4209;DHT22;36320;48.860;2.380;2023-07-13T10:33:03;25.50;45.20
4209;DHT22;36320;48.860;2.380;2023-07-13T10:35:34;25.50;45.20
4209;DHT22;36320;48.860;2.380;2023-07-13T10:38:07;25.40;45.10
4209;DHT22;36320;48.860;2.380;2023-07-13T10:40:42;25.50;44.90
4209;DHT22;36320;48.860;2.380;2023-07-13T10:43:18;25.60;44.70
4209;DHT22;36320;48.860;2.380;2023-07-13T10:45:47;25.50;44.60
4209;DHT22;36320;48.860;2.380;2023-07-13T10:48:16;25.40;44.50
4209;DHT22;36320;48.860;2.380;2023-07-13T10:50:45;25.50;45.10
4209;DHT22;36320;48.860;2.380;2023-07-13T10:53:31;25.40;44.40
4209;DHT22;36320;48.860;2.380;2023-07-13T10:56:05;25.50;44.30
4209;DHT22;36320;48.860;2.380;2023-07-13T11:01:14;25.70;44.40
4209;DHT22;36320;48.860;2.380;2023-07-13T11:03:49;25.70;44.40
4209;DHT22;36320;48.860;2.380;2023-07-13T11:06:40;25.70;44.50
4209;DHT22;36320;48.860;2.380;2023-07-13T11:09:32;25.60;44.80
4209;DHT22;36320;48.860;2.380;2023-07-13T11:12:00;25.70;45.00
4209;DHT22;36320;48.860;2.380;2023-07-13T11:14:41;25.60;45.00
4209;DHT22;36320;48.860;2.380;2023-07-13T11:25:38;25.80;44.80
4209;DHT22;36320;48.860;2.380;2023-07-13T11:30:45;26.00;44.60
4209;DHT22;36320;48.860;2.380;2023-07-13T11:36:17;26.60;44.10
4209;DHT22;36320;48.860;2.380;2023-07-13T11:41:53;26.90;43.30
4209;DHT22;36320;48.860;2.380;2023-07-13T11:44:22;27.10;42.90
4209;DHT22;36320;48.860;2.380;2023-07-13T11:46:54;27.10;42.70
4209;DHT22;36320;48.860;2.380;2023-07-13T11:49:25;26.90;42.80
4209;DHT22;36320;48.860;2.380;2023-07-13T11:51:56;27.00;42.90
4209;DHT22;36320;48.860;2.380;2023-07-13T11:54:27;27.20;42.80
4209;DHT22;36320;48.860;2.380;2023-07-13T11:57:33;27.20;42.50
4209;DHT22;36320;48.860;2.380;2023-07-13T12:00:09;27.00;42.40
4209;DHT22;36320;48.860;2.380;2023-07-13T12:02:39;27.00;42.60
4209;DHT22;36320;48.860;2.380;2023-07-13T12:05:11;27.00;42.40
4209;DHT22;36320;48.860;2.380;2023-07-13T12:07:39;27.00;42.30
4209;DHT22;36320;48.860;2.380;2023-07-13T12:12:36;27.20;42.10
4209;DHT22;36320;48.860;2.380;2023-07-13T12:15:06;27.30;41.90
4209;DHT22;36320;48.860;2.380;2023-07-13T12:17:34;27.30;41.80
4209;DHT22;36320;48.860;2.380;2023-07-13T12:20:03;27.30;41.60
4209;DHT22;36320;48.860;2.380;2023-07-13T12:22:35;27.20;41.60
4209;DHT22;36320;48.860;2.380;2023-07-13T12:25:01;27.40;41.50
4209;DHT22;36320;48.860;2.380;2023-07-13T12:27:27;27.50;41.00
4209;DHT22;36320;48.860;2.380;2023-07-13T12:30:01;27.50;40.70
4209;DHT22;36320;48.860;2.380;2023-07-13T12:32:28;27.60;40.40
4209;DHT22;36320;48.860;2.380;2023-07-13T12:35:04;27.50;40.10
4209;DHT22;36320;48.860;2.380;2023-07-13T12:37:35;27.50;39.90
4209;DHT22;36320;48.860;2.380;2023-07-13T12:40:01;27.80;39.30
4209;DHT22;36320;48.860;2.380;2023-07-13T12:42:32;27.50;38.80
4209;DHT22;36320;48.860;2.380;2023-07-13T12:45:03;27.20;39.10
4209;DHT22;36320;48.860;2.380;2023-07-13T12:47:30;27.10;39.40
4209;DHT22;36320;48.860;2.380;2023-07-13T12:50:00;27.20;39.30
4209;DHT22;36320;48.860;2.380;2023-07-13T12:52:33;27.20;38.80
4209;DHT22;36320;48.860;2.380;2023-07-13T12:55:16;27.30;38.60
4209;DHT22;36320;48.860;2.380;2023-07-13T12:57:54;27.50;38.20
4209;DHT22;36320;48.860;2.380;2023-07-13T13:02:56;27.50;37.90
4209;DHT22;36320;48.860;2.380;2023-07-13T13:05:26;27.50;37.40
4209;DHT22;36320;48.860;2.380;2023-07-13T13:07:52;27.80;37.00
4209;DHT22;36320;48.860;2.380;2023-07-13T13:10:18;27.80;36.50
4209;DHT22;36320;48.860;2.380;2023-07-13T13:12:46;28.00;36.20
4209;DHT22;36320;48.860;2.380;2023-07-13T13:15:14;28.10;35.80
4209;DHT22;36320;48.860;2.380;2023-07-13T13:17:42;28.20;35.40
4209;DHT22;36320;48.860;2.380;2023-07-13T13:20:20;28.10;35.00
4209;DHT22;36320;48.860;2.380;2023-07-13T13:22:47;28.10;34.90
4209;DHT22;36320;48.860;2.380;2023-07-13T13:25:14;28.00;34.80
4209;DHT22;36320;48.860;2.380;2023-07-13T13:27:41;28.20;34.80
4209;DHT22;36320;48.860;2.380;2023-07-13T13:30:16;28.40;34.60
4209;DHT22;36320;48.860;2.380;2023-07-13T13:32:44;28.80;34.40
4209;DHT22;36320;48.860;2.380;2023-07-13T13:35:15;28.70;34.20
4209;DHT22;36320;48.860;2.380;2023-07-13T13:37:41;28.90;34.20
4209;DHT22;36320;48.860;2.380;2023-07-13T13:40:15;28.90;34.20
4209;DHT22;36320;48.860;2.380;2023-07-13T13:42:41;28.90;34.10
4209;DHT22;36320;48.860;2.380;2023-07-13T13:45:09;29.00;34.10
4209;DHT22;36320;48.860;2.380;2023-07-13T13:47:35;29.30;33.90
4209;DHT22;36320;48.860;2.380;2023-07-13T13:50:41;29.30;33.70
4209;DHT22;36320;48.860;2.380;2023-07-13T13:52:59;29.20;33.50
4209;DHT22;36320;48.860;2.380;2023-07-13T13:55:28;29.00;33.70
4209;DHT22;36320;48.860;2.380;2023-07-13T13:57:54;28.80;33.80
4209;DHT22;36320;48.860;2.380;2023-07-13T14:00:20;29.00;33.80
4209;DHT22;36320;48.860;2.380;2023-07-13T14:02:48;29.10;33.90
4209;DHT22;36320;48.860;2.380;2023-07-13T14:05:23;29.00;33.60
4209;DHT22;36320;48.860;2.380;2023-07-13T14:07:51;29.00;33.50
4209;DHT22;36320;48.860;2.380;2023-07-13T14:10:19;29.00;33.50
4209;DHT22;36320;48.860;2.380;2023-07-13T14:12:50;29.20;33.40
4209;DHT22;36320;48.860;2.380;2023-07-13T14:15:29;29.50;33.00
4209;DHT22;36320;48.860;2.380;2023-07-13T14:17:58;28.60;33.30
4209;DHT22;36320;48.860;2.380;2023-07-13T14:20:25;29.30;33.10
4209;DHT22;36320;48.860;2.380;2023-07-13T14:22:52;29.30;33.00
4209;DHT22;36320;48.860;2.380;2023-07-13T14:25:19;29.10;33.10
4209;DHT22;36320;48.860;2.380;2023-07-13T14:27:48;28.90;33.30
4209;DHT22;36320;48.860;2.380;2023-07-13T14:30:17;28.90;33.40
4209;DHT22;36320;48.860;2.380;2023-07-13T14:32:44;29.00;33.50
4209;DHT22;36320;48.860;2.380;2023-07-13T14:35:14;29.00;33.40
4209;DHT22;36320;48.860;2.380;2023-07-13T14:37:41;28.90;33.50
4209;DHT22;36320;48.860;2.380;2023-07-13T14:40:16;29.00;33.50
4209;DHT22;36320;48.860;2.380;2023-07-13T14:42:42;28.90;33.30
4209;DHT22;36320;48.860;2.380;2023-07-13T14:45:20;28.90;33.40
4209;DHT22;36320;48.860;2.380;2023-07-13T14:47:47;28.60;33.60
4209;DHT22;36320;48.860;2.380;2023-07-13T14:52:42;28.30;34.00
4209;DHT22;36320;48.860;2.380;2023-07-13T14:55:15;28.40;34.20
4209;DHT22;36320;48.860;2.380;2023-07-13T14:57:40;28.40;34.10
4209;DHT22;36320;48.860;2.380;2023-07-13T15:00:20;28.50;34.10
4209;DHT22;36320;48.860;2.380;2023-07-13T15:02:56;28.50;34.20
4209;DHT22;36320;48.860;2.380;2023-07-13T15:05:25;28.50;34.20
4209;DHT22;36320;48.860;2.380;2023-07-13T15:07:53;28.40;34.50
4209;DHT22;36320;48.860;2.380;2023-07-13T15:10:21;28.10;34.70
4209;DHT22;36320;48.860;2.380;2023-07-13T15:12:51;28.00;35.00
4209;DHT22;36320;48.860;2.380;2023-07-13T15:15:21;27.90;35.10
4209;DHT22;36320;48.860;2.380;2023-07-13T15:17:47;27.90;35.10
4209;DHT22;36320;48.860;2.380;2023-07-13T15:20:21;27.90;35.20
4209;DHT22;36320;48.860;2.380;2023-07-13T15:22:48;28.00;35.00
4209;DHT22;36320;48.860;2.380;2023-07-13T15:25:18;28.20;35.00
4209;DHT22;36320;48.860;2.380;2023-07-13T15:27:44;28.10;35.00
4209;DHT22;36320;48.860;2.380;2023-07-13T15:30:11;28.00;35.10
4209;DHT22;36320;48.860;2.380;2023-07-13T15:32:37;28.10;35.30
4209;DHT22;36320;48.860;2.380;2023-07-13T15:35:03;28.10;35.20
4209;DHT22;36320;48.860;2.380;2023-07-13T15:37:29;28.00;35.20
4209;DHT22;36320;48.860;2.380;2023-07-13T15:39:55;27.90;35.30
4209;DHT22;36320;48.860;2.380;2023-07-13T15:42:22;27.90;35.30
4209;DHT22;36320;48.860;2.380;2023-07-13T15:44:49;27.70;35.50
4209;DHT22;36320;48.860;2.380;2023-07-13T15:47:15;27.70;35.70
4209;DHT22;36320;48.860;2.380;2023-07-13T15:49:41;27.60;35.70
4209;DHT22;36320;48.860;2.380;2023-07-13T15:52:19;27.60;35.90
4209;DHT22;36320;48.860;2.380;2023-07-13T15:54:46;27.70;35.80
4209;DHT22;36320;48.860;2.380;2023-07-13T15:57:13;27.80;35.80
4209;DHT22;36320;48.860;2.380;2023-07-13T15:59:40;28.20;35.60
4209;DHT22;36320;48.860;2.380;2023-07-13T16:02:18;28.30;35.50
4209;DHT22;36320;48.860;2.380;2023-07-13T16:04:46;28.20;35.60
4209;DHT22;36320;48.860;2.380;2023-07-13T16:07:14;28.10;35.80
4209;DHT22;36320;48.860;2.380;2023-07-13T16:09:43;28.00;35.70
4209;DHT22;36320;48.860;2.380;2023-07-13T16:12:13;27.90;36.10
4209;DHT22;36320;48.860;2.380;2023-07-13T16:14:40;27.70;36.30
4209;DHT22;36320;48.860;2.380;2023-07-13T16:17:12;27.40;36.70
4209;DHT22;36320;48.860;2.380;2023-07-13T16:19:38;27.40;36.90
4209;DHT22;36320;48.860;2.380;2023-07-13T16:22:08;27.30;37.00
4209;DHT22;36320;48.860;2.380;2023-07-13T16:24:39;27.30;37.00
4209;DHT22;36320;48.860;2.380;2023-07-13T16:27:05;27.40;37.10
4209;DHT22;36320;48.860;2.380;2023-07-13T16:29:32;27.80;36.60
4209;DHT22;36320;48.860;2.380;2023-07-13T16:32:10;27.80;36.60
4209;DHT22;36320;48.860;2.380;2023-07-13T16:34:37;27.90;36.70
4209;DHT22;36320;48.860;2.380;2023-07-13T16:37:18;28.20;36.40
4209;DHT22;36320;48.860;2.380;2023-07-13T16:39:50;28.30;36.30